Time;durP1;ratioP1;P1;durP2;ratioP2;P2;SDS_P1;SDS_P2;PMS_P1;PMS_P2;Temp;Humidity;BMP_temperature;BMP_pressure;BME280_temperature;BME280_humidity;BME280_pressure;Samples;Min_cycle;Max_cycle;Signal;HPM_P1;HPM_P2
2022/11/11 00:01:31;;;;;;;12.17;8.17;;;;;;;5.26;100.00;99591.69;5076427;28;20280;-69
2022/11/11 00:03:58;;;;;;;12.90;8.20;;;;;;;5.23;100.00;99588.28;5091696;28;20260;-69
2022/11/11 00:06:24;;;;;;;9.63;7.87;;;;;;;5.25;100.00;99592.56;5098819;28;20305;-69
2022/11/11 00:08:52;;;;;;;10.03;7.80;;;;;;;5.21;100.00;99590.97;5100630;28;20261;-70
2022/11/11 00:11:19;;;;;;;11.63;8.53;;;;;;;5.19;100.00;99590.09;5100568;28;20253;-69
2022/11/11 00:13:46;;;;;;;14.37;9.63;;;;;;;5.16;100.00;99590.19;5100589;28;20258;-69
2022/11/11 00:16:15;;;;;;;15.07;8.23;;;;;;;5.17;100.00;99594.53;5100437;28;20340;-70
2022/11/11 00:27:10;;;;;;;12.50;7.83;;;;;;;4.99;100.00;99599.34;5100349;28;20352;-69
2022/11/11 00:29:37;;;;;;;9.93;7.53;;;;;;;4.91;100.00;99598.69;5100276;28;20293;-70
2022/11/11 00:32:23;;;;;;;12.40;8.63;;;;;;;4.84;100.00;99605.81;5100098;28;20558;-70
2022/11/11 00:37:34;;;;;;;11.57;7.93;;;;;;;4.78;100.00;99600.75;5100209;28;20354;-69
2022/11/11 00:40:03;;;;;;;12.03;8.30;;;;;;;4.80;100.00;99606.78;5100061;28;20340;-70
2022/11/11 00:42:29;;;;;;;12.80;9.07;;;;;;;4.87;100.00;99604.88;5099909;28;20302;-70
2022/11/11 00:44:56;;;;;;;13.77;9.37;;;;;;;4.88;100.00;99602.22;5098194;28;20647;-69
2022/11/11 00:52:56;;;;;;;15.27;10.33;;;;;;;5.00;100.00;99612.41;5099778;28;20229;-71
2022/11/11 00:55:24;;;;;;;11.67;9.30;;;;;;;5.01;100.00;99622.00;5099665;28;20256;-70
2022/11/11 00:57:50;;;;;;;13.27;9.50;;;;;;;4.97;100.00;99628.22;5099781;28;20255;-70
2022/11/11 01:00:17;;;;;;;16.87;9.80;;;;;;;4.94;100.00;99638.75;5099553;28;20296;-70
2022/11/11 01:02:44;;;;;;;12.37;9.33;;;;;;;4.85;100.00;99639.00;5094623;28;20224;-69
2022/11/11 01:05:11;;;;;;;14.57;9.20;;;;;;;4.82;100.00;99635.59;5079472;28;20249;-70
2022/11/11 01:07:37;;;;;;;15.00;10.03;;;;;;;4.85;100.00;99639.00;5079536;28;20253;-68
2022/11/11 01:10:05;;;;;;;12.00;9.07;;;;;;;4.89;100.00;99629.31;5079285;28;20256;-69
2022/11/11 01:12:33;;;;;;;13.00;8.50;;;;;;;4.91;100.00;99623.13;5077535;28;20246;-70
2022/11/11 01:14:59;;;;;;;11.83;8.67;;;;;;;4.90;100.00;99616.13;5079184;28;20333;-70
2022/11/11 01:17:26;;;;;;;13.00;9.73;;;;;;;4.89;100.00;99613.59;5078126;28;20252;-70
2022/11/11 01:19:52;;;;;;;11.70;9.33;;;;;;;4.90;100.00;99613.53;5079111;28;20256;-70
2022/11/11 01:22:19;;;;;;;13.37;9.13;;;;;;;4.92;100.00;99609.13;5079017;28;20273;-70
2022/11/11 01:24:46;;;;;;;15.93;9.80;;;;;;;4.86;100.00;99611.03;5078917;28;20290;-70
2022/11/11 01:27:12;;;;;;;13.27;9.47;;;;;;;4.90;100.00;99610.91;5079013;28;20342;-70
2022/11/11 01:29:40;;;;;;;12.27;8.93;;;;;;;4.94;100.00;99596.84;5078981;28;20307;-70
2022/11/11 01:32:07;;;;;;;14.77;9.80;;;;;;;4.94;100.00;99607.31;5078992;28;20218;-70
2022/11/11 01:34:34;;;;;;;12.00;9.63;;;;;;;4.95;100.00;99618.69;5078826;28;20261;-69
2022/11/11 01:37:00;;;;;;;12.43;9.70;;;;;;;4.95;100.00;99619.53;5077009;28;20360;-68
2022/11/11 01:39:27;;;;;;;11.70;9.40;;;;;;;4.90;100.00;99623.16;5078610;28;20254;-68
2022/11/11 01:41:53;;;;;;;12.00;9.17;;;;;;;4.90;100.00;99626.63;5078431;28;20315;-70
2022/11/11 01:44:43;;;;;;;13.47;9.53;;;;;;;4.88;100.00;99628.44;5078556;28;20218;-68
2022/11/11 01:47:10;;;;;;;12.53;8.87;;;;;;;4.91;100.00;99622.25;5078439;28;20217;-69
2022/11/11 01:49:40;;;;;;;14.27;10.27;;;;;;;4.92;100.00;99619.59;5078518;28;20279;-68
2022/11/11 01:52:12;;;;;;;13.63;9.23;;;;;;;4.93;100.00;99621.31;5078600;28;20560;-69
2022/11/11 01:54:43;;;;;;;12.00;9.93;;;;;;;4.92;100.00;99614.38;5078562;28;20573;-71
2022/11/11 01:57:15;;;;;;;13.20;10.00;;;;;;;4.92;100.00;99610.88;5078272;28;20255;-70
2022/11/11 01:59:46;;;;;;;14.57;10.47;;;;;;;4.93;100.00;99608.22;5078237;28;20621;-69
2022/11/11 02:02:17;;;;;;;12.87;10.20;;;;;;;4.95;100.00;99611.66;5076992;28;20274;-69
2022/11/11 02:07:31;;;;;;;13.70;9.77;;;;;;;4.95;100.00;99621.31;5098501;28;20302;-68
2022/11/11 02:09:57;;;;;;;14.13;9.63;;;;;;;4.92;100.00;99621.34;5098313;28;20656;-69
2022/11/11 02:15:11;;;;;;;12.57;9.67;;;;;;;4.87;100.00;99626.72;5098347;28;20216;-70
2022/11/11 02:17:39;;;;;;;13.60;10.30;;;;;;;4.87;100.00;99626.72;5098177;28;20647;-70
2022/11/11 02:20:09;;;;;;;14.43;9.60;;;;;;;4.87;100.00;99626.72;5098225;28;20260;-69
2022/11/11 02:22:44;;;;;;;11.73;9.20;;;;;;;4.86;100.00;99627.59;5098053;28;20316;-68
2022/11/11 02:25:17;;;;;;;11.77;9.43;;;;;;;4.80;100.00;99619.88;5098057;28;20282;-68
2022/11/11 02:27:48;;;;;;;13.80;9.20;;;;;;;4.77;100.00;99619.94;5098513;28;20284;-68
2022/11/11 02:30:16;;;;;;;12.13;9.60;;;;;;;4.80;100.00;99625.13;5096780;28;20204;-68
2022/11/11 02:32:44;;;;;;;14.60;9.83;;;;;;;4.81;100.00;99626.84;5097966;28;20245;-68
2022/11/11 02:35:16;;;;;;;14.17;10.33;;;;;;;4.80;100.00;99624.25;5097933;28;20228;-68
2022/11/11 02:37:45;;;;;;;11.47;9.57;;;;;;;4.81;100.00;99620.72;5097907;28;20263;-69
2022/11/11 02:40:17;;;;;;;11.53;9.37;;;;;;;4.80;100.00;99624.25;5097984;28;20264;-69
2022/11/11 02:42:43;;;;;;;9.87;8.87;;;;;;;4.79;100.00;99622.53;5097703;28;20318;-68
2022/11/11 02:45:10;;;;;;;14.43;10.37;;;;;;;4.78;100.00;99619.06;5097639;28;20307;-68
2022/11/11 02:47:36;;;;;;;12.80;10.50;;;;;;;4.81;100.00;99616.38;5097552;28;20236;-68
2022/11/11 02:50:04;;;;;;;13.77;9.40;;;;;;;4.83;100.00;99624.19;5097556;28;20264;-69
2022/11/11 02:52:30;;;;;;;14.53;10.07;;;;;;;4.73;100.00;99620.06;5097594;28;20260;-69
2022/11/11 02:54:57;;;;;;;12.67;9.40;;;;;;;4.72;100.00;99621.84;5095805;28;20256;-71
2022/11/11 02:57:25;;;;;;;11.93;9.03;;;;;;;4.65;100.00;99619.38;5097453;28;20263;-69
2022/11/11 02:59:52;;;;;;;10.77;8.83;;;;;;;4.59;100.00;99611.66;5097328;28;20264;-69
2022/11/11 03:02:18;;;;;;;13.70;9.53;;;;;;;4.53;100.00;99615.25;5095877;28;20272;-70
2022/11/11 03:04:45;;;;;;;12.00;8.90;;;;;;;4.52;100.00;99616.16;5077100;28;20297;-70
2022/11/11 03:07:12;;;;;;;14.37;9.93;;;;;;;4.51;100.00;99611.81;5077083;28;20252;-69
2022/11/11 03:09:38;;;;;;;13.20;9.23;;;;;;;4.51;100.00;99617.06;5077110;28;20300;-69
2022/11/11 03:12:05;;;;;;;13.80;9.20;;;;;;;4.50;100.00;99610.09;5077188;28;20253;-69
2022/11/11 03:14:33;;;;;;;11.80;9.13;;;;;;;4.48;100.00;99606.66;5076994;28;20256;-69
2022/11/11 03:19:44;;;;;;;13.03;9.67;;;;;;;4.49;100.00;99603.13;5075117;28;20213;-69
2022/11/11 03:22:10;;;;;;;15.20;10.30;;;;;;;4.53;100.00;99603.94;5077013;28;20359;-69
2022/11/11 03:27:21;;;;;;;15.70;10.63;;;;;;;4.54;100.00;99611.75;5077086;28;20216;-68
2022/11/11 03:29:49;;;;;;;14.00;10.67;;;;;;;4.56;100.00;99607.34;5076896;28;20252;-68
2022/11/11 03:32:15;;;;;;;14.73;11.80;;;;;;;4.58;100.00;99604.69;5076866;28;20253;-68
2022/11/11 03:34:42;;;;;;;17.70;11.77;;;;;;;4.56;100.00;99594.25;5076992;28;20261;-67
2022/11/11 03:39:55;;;;;;;16.70;11.30;;;;;;;4.55;100.00;99599.50;5076960;28;20319;-67
2022/11/11 03:42:22;;;;;;;15.73;10.50;;;;;;;4.52;100.00;99597.81;5080606;28;20305;-67
2022/11/11 03:44:50;;;;;;;17.30;12.50;;;;;;;4.54;100.00;99601.28;5081070;28;20252;-67
2022/11/11 03:47:16;;;;;;;18.70;12.93;;;;;;;4.51;100.00;99611.81;5079242;28;20263;-67
2022/11/11 03:49:44;;;;;;;18.90;14.13;;;;;;;4.51;100.00;99611.81;5080896;28;20586;-67
2022/11/11 03:52:12;;;;;;;17.27;12.30;;;;;;;4.55;100.00;99613.47;5080742;28;20571;-67
2022/11/11 03:54:39;;;;;;;18.47;12.43;;;;;;;4.56;100.00;99619.56;5080612;28;20220;-68
2022/11/11 03:59:51;;;;;;;15.47;11.70;;;;;;;4.60;100.00;99627.34;5080727;28;20758;-67
2022/11/11 04:10:31;;;;;;;16.30;11.57;;;;;;;4.53;100.00;99641.44;5100702;28;20239;-66
2022/11/11 04:16:05;;;;;;;15.17;10.93;;;;;;;4.48;100.00;99642.44;5018489;28;20508;-67
2022/11/11 04:24:01;;;;;;;16.77;11.53;;;;;;;4.37;100.00;99632.19;5100315;28;20219;-66
2022/11/11 04:26:26;;;;;;;17.57;11.83;;;;;;;4.35;100.00;99636.56;5100427;28;20259;-66
2022/11/11 04:32:34;;;;;;;16.83;10.80;;;;;;;4.41;100.00;99620.75;5100360;28;20215;-66
2022/11/11 04:34:24;;;;;;;12.53;9.87;;;;;;;4.39;100.00;99622.53;5100086;28;20210;-66
2022/11/11 04:36:51;;;;;;;13.60;9.77;;;;;;;4.37;100.00;99624.34;5098793;28;20220;-66
2022/11/11 04:42:02;;;;;;;13.13;9.20;;;;;;;4.32;100.00;99643.63;5100072;28;20230;-66
2022/11/11 04:47:14;;;;;;;13.77;9.50;;;;;;;4.22;100.00;99650.81;5100194;28;20299;-66
2022/11/11 04:49:40;;;;;;;12.60;9.00;;;;;;;4.16;100.00;99658.78;5100013;28;20275;-66
2022/11/11 04:52:27;;;;;;;12.70;9.23;;;;;;;4.11;100.00;99663.28;5099948;28;20251;-66
2022/11/11 04:57:40;;;;;;;11.93;8.80;;;;;;;4.06;100.00;99678.19;5099925;28;20297;-68
2022/11/11 05:00:08;;;;;;;10.63;8.67;;;;;;;4.07;100.00;99682.53;5099711;28;20649;-67
2022/11/11 05:05:20;;;;;;;15.63;9.33;;;;;;;3.94;100.00;99686.25;5079761;28;20629;-67
2022/11/11 05:10:30;;;;;;;11.17;8.60;;;;;;;3.84;100.00;99684.69;5079387;28;20211;-68
2022/11/11 05:21:19;;;;;;;14.10;10.03;;;;;;;3.80;100.00;99692.63;5079167;28;20658;-68
2022/11/11 05:21:21;;;;;;;10.83;8.50;;;;;;;3.89;100.00;99709.00;5079039;28;20557;-65
2022/11/11 05:26:32;;;;;;;11.47;8.80;;;;;;;3.92;100.00;99719.41;5079015;28;20235;-67
2022/11/11 05:28:58;;;;;;;10.50;8.20;;;;;;;3.92;100.00;99721.19;5077288;28;20581;-66
2022/11/11 05:31:25;;;;;;;9.57;7.27;;;;;;;3.94;100.00;99722.00;5078973;28;20300;-68
2022/11/11 05:33:53;;;;;;;11.20;7.87;;;;;;;3.95;100.00;99719.38;5078825;28;20252;-67
2022/11/11 05:36:20;;;;;;;9.50;7.37;;;;;;;3.95;100.00;99713.25;5078708;28;20256;-67
2022/11/11 05:38:46;;;;;;;12.37;8.43;;;;;;;3.96;100.00;99720.22;5078753;28;20261;-66
2022/11/11 05:41:13;;;;;;;11.23;7.67;;;;;;;3.97;100.00;99727.19;5078732;28;20299;-67
2022/11/11 05:43:40;;;;;;;10.83;8.53;;;;;;;3.92;100.00;99726.41;5078527;28;20320;-67
2022/11/11 05:46:06;;;;;;;10.43;8.03;;;;;;;3.92;100.00;99724.63;5078486;28;20631;-67
2022/11/11 05:48:33;;;;;;;11.30;7.30;;;;;;;3.97;100.00;99724.59;5078531;28;20263;-67
2022/11/11 05:51:01;;;;;;;12.97;8.40;;;;;;;4.01;100.00;99732.34;5078514;28;20255;-67
2022/11/11 05:53:28;;;;;;;11.80;8.47;;;;;;;4.03;100.00;99743.63;5078442;28;20662;-67
2022/11/11 05:55:54;;;;;;;10.90;8.20;;;;;;;4.02;100.00;99752.38;5076748;28;20220;-66
2022/11/11 05:58:21;;;;;;;10.50;7.47;;;;;;;3.99;100.00;99755.06;5078362;28;20311;-66
2022/11/11 06:00:48;;;;;;;9.57;7.70;;;;;;;3.94;100.00;99746.41;5078286;28;20303;-65
2022/11/11 06:03:14;;;;;;;10.47;8.07;;;;;;;3.89;100.00;99743.00;5086400;28;20315;-66
2022/11/11 06:05:41;;;;;;;9.03;7.67;;;;;;;3.91;100.00;99750.84;5098403;28;20266;-66
2022/11/11 06:08:09;;;;;;;9.73;7.80;;;;;;;3.88;100.00;99757.00;5098515;28;20252;-65
2022/11/11 06:10:37;;;;;;;10.43;7.67;;;;;;;3.90;100.00;99757.81;5098474;28;20253;-65
2022/11/11 06:13:06;;;;;;;9.27;7.27;;;;;;;3.86;100.00;99750.91;5098377;28;20523;-68
2022/11/11 06:15:33;;;;;;;10.53;7.57;;;;;;;3.88;100.00;99758.72;5098245;28;20308;-67
2022/11/11 06:18:00;;;;;;;10.50;8.70;;;;;;;3.81;100.00;99752.75;5098193;28;20337;-67
2022/11/11 06:20:27;;;;;;;10.50;8.17;;;;;;;3.78;100.00;99760.63;5096502;28;20254;-66
2022/11/11 06:22:56;;;;;;;11.77;7.93;;;;;;;3.77;100.00;99765.88;5098208;28;20275;-67
2022/11/11 06:28:08;;;;;;;10.20;8.10;;;;;;;3.81;100.00;99776.28;5098096;28;20214;-66
2022/11/11 06:30:35;;;;;;;8.57;7.10;;;;;;;3.81;100.00;99778.03;5097843;28;20307;-65
2022/11/11 06:33:02;;;;;;;10.57;7.43;;;;;;;3.84;100.00;99778.00;5097786;28;20276;-65
2022/11/11 06:35:29;;;;;;;9.03;7.80;;;;;;;3.85;100.00;99780.56;5097865;28;20226;-66
2022/11/11 06:37:55;;;;;;;9.97;7.43;;;;;;;3.89;100.00;99790.09;5097920;28;20670;-66
2022/11/11 06:40:23;;;;;;;10.10;7.73;;;;;;;3.89;100.00;99787.47;5097864;28;20277;-66
2022/11/11 06:42:50;;;;;;;10.20;7.73;;;;;;;3.89;100.00;99779.63;5097710;28;20245;-66
2022/11/11 06:45:17;;;;;;;8.50;7.07;;;;;;;3.87;100.00;99791.88;5097813;28;20389;-66
2022/11/11 06:47:43;;;;;;;10.23;7.73;;;;;;;3.89;100.00;99792.72;5095996;28;20260;-66
2022/11/11 06:50:10;;;;;;;11.87;7.60;;;;;;;3.93;100.00;99789.16;5097589;28;20251;-66
2022/11/11 06:52:37;;;;;;;8.93;7.77;;;;;;;3.93;100.00;99791.78;5097574;28;20275;-66
2022/11/11 06:55:04;;;;;;;10.83;7.93;;;;;;;3.98;100.00;99786.47;5097354;28;20254;-66
2022/11/11 06:57:31;;;;;;;11.60;8.50;;;;;;;4.03;100.00;99785.50;5097484;28;20259;-67
2022/11/11 06:59:58;;;;;;;10.70;8.17;;;;;;;4.05;100.00;99788.97;5097524;28;20253;-67
2022/11/11 07:02:25;;;;;;;11.70;8.50;;;;;;;4.07;100.00;99787.16;5095417;28;20272;-66
2022/11/11 07:04:51;;;;;;;11.93;8.37;;;;;;;4.09;100.00;99785.38;5077149;28;20282;-66
2022/11/11 07:07:18;;;;;;;12.87;9.17;;;;;;;4.10;100.00;99786.25;5077084;28;20260;-66
2022/11/11 07:09:45;;;;;;;11.40;8.80;;;;;;;4.16;100.00;99791.38;5077039;28;20221;-66
2022/11/11 07:12:11;;;;;;;11.37;9.37;;;;;;;4.20;100.00;99793.91;5075322;28;20296;-66
2022/11/11 07:14:39;;;;;;;11.70;9.07;;;;;;;4.23;100.00;99793.84;5076675;28;20666;-66
2022/11/11 07:17:06;;;;;;;14.67;9.50;;;;;;;4.26;100.00;99792.94;5076498;28;20312;-67
2022/11/11 07:19:33;;;;;;;14.30;10.13;;;;;;;4.32;100.00;99793.69;5076913;28;20256;-67
2022/11/11 07:21:59;;;;;;;14.40;11.00;;;;;;;4.34;100.00;99791.06;5076922;28;20264;-67
2022/11/11 07:24:26;;;;;;;13.80;9.73;;;;;;;4.42;100.00;99790.03;5076794;28;20260;-65
2022/11/11 07:26:52;;;;;;;16.63;10.63;;;;;;;4.50;100.00;99793.38;5076865;28;20253;-66
2022/11/11 07:29:19;;;;;;;15.17;10.07;;;;;;;4.58;100.00;99786.22;5076852;28;20256;-67
2022/11/11 07:31:47;;;;;;;15.10;9.77;;;;;;;4.64;100.00;99795.72;5076925;28;20256;-65
2022/11/11 07:34:14;;;;;;;14.53;10.40;;;;;;;4.69;100.00;99799.97;5076802;28;20255;-66
2022/11/11 07:36:40;;;;;;;12.87;9.30;;;;;;;4.75;100.00;99799.84;5076863;28;20257;-66
2022/11/11 07:39:07;;;;;;;16.70;11.30;;;;;;;4.84;100.00;99804.03;5075069;28;20283;-67
2022/11/11 07:41:34;;;;;;;14.40;10.17;;;;;;;4.88;100.00;99801.31;5076726;28;20264;-67
2022/11/11 07:44:01;;;;;;;15.40;10.93;;;;;;;4.94;100.00;99801.19;5076639;28;20249;-67
2022/11/11 07:46:27;;;;;;;14.40;9.93;;;;;;;5.00;100.00;99798.47;5076661;28;20218;-67
2022/11/11 07:48:55;;;;;;;13.30;9.50;;;;;;;5.01;100.00;99799.34;5076768;28;20526;-68
2022/11/11 07:51:22;;;;;;;11.77;8.70;;;;;;;5.04;100.00;99797.50;5076820;28;20566;-66
2022/11/11 07:53:49;;;;;;;10.10;8.37;;;;;;;5.12;100.00;99800.81;5076648;28;20252;-66
2022/11/11 07:56:15;;;;;;;11.80;7.77;;;;;;;5.18;100.00;99800.69;5076709;28;20256;-66
2022/11/11 07:58:42;;;;;;;10.33;7.90;;;;;;;5.18;100.00;99789.34;5076715;28;20261;-66
2022/11/11 08:01:09;;;;;;;10.67;7.03;;;;;;;5.21;100.00;99789.28;5076758;28;20333;-66
2022/11/11 08:03:48;;;;;;;9.23;7.27;;;;;;;5.20;100.00;99798.88;5086374;28;20282;-66
2022/11/11 08:06:17;;;;;;;17.30;11.20;;;;;;;5.19;100.00;99797.16;5096888;28;20220;-66
2022/11/11 08:08:43;;;;;;;11.37;8.40;;;;;;;5.18;100.00;99795.44;5096882;28;20304;-66
2022/11/11 08:11:10;;;;;;;9.73;7.63;;;;;;;5.25;100.00;99801.44;5096759;28;20257;-66
2022/11/11 08:13:42;;;;;;;9.27;7.57;;;;;;;5.21;100.00;99800.66;5096718;28;20252;-66
2022/11/11 08:16:10;;;;;;;10.70;7.30;;;;;;;5.30;100.00;99799.56;5096723;28;20217;-67
2022/11/11 08:18:37;;;;;;;9.57;7.57;;;;;;;5.34;100.00;99803.84;5096726;28;20347;-66
2022/11/11 08:21:05;;;;;;;8.53;7.33;;;;;;;5.35;100.00;99793.34;5096602;28;20257;-67
2022/11/11 08:23:33;;;;;;;9.40;7.27;;;;;;;5.34;100.00;99795.97;5096566;28;20309;-66
2022/11/11 08:26:01;;;;;;;10.57;7.17;;;;;;;5.33;100.00;99805.63;5096574;28;20246;-66
2022/11/11 08:28:28;;;;;;;8.23;6.90;;;;;;;5.41;100.00;99793.19;5100190;28;20644;-66
2022/11/11 08:30:55;;;;;;;11.13;7.80;;;;;;;5.46;100.00;99800.94;5098613;28;20301;-67
2022/11/11 08:33:21;;;;;;;11.83;7.40;;;;;;;5.51;100.00;99793.84;5100344;28;20251;-67
2022/11/11 08:35:48;;;;;;;9.53;7.50;;;;;;;5.52;100.00;99791.19;5100289;28;20268;-67
2022/11/11 08:38:15;;;;;;;10.07;7.93;;;;;;;5.55;100.00;99791.13;5100150;28;20646;-67
2022/11/11 08:40:43;;;;;;;14.80;10.20;;;;;;;5.58;100.00;99784.94;5100169;28;20257;-67
2022/11/11 08:43:09;;;;;;;10.37;8.83;;;;;;;5.61;100.00;99790.13;5100011;28;20303;-67
2022/11/11 08:45:36;;;;;;;10.47;8.27;;;;;;;5.66;100.00;99790.84;5100005;28;20319;-67
2022/11/11 08:48:03;;;;;;;8.93;7.90;;;;;;;5.74;100.00;99795.03;5099907;28;20256;-67
2022/11/11 08:50:30;;;;;;;9.23;7.70;;;;;;;5.78;100.00;99799.31;5099985;28;20545;-67
2022/11/11 08:52:57;;;;;;;10.17;7.50;;;;;;;5.87;100.00;99804.38;5099949;28;20656;-67
2022/11/11 08:55:23;;;;;;;10.83;7.37;;;;;;;5.97;100.00;99803.25;5098114;28;20355;-67
2022/11/11 08:57:59;;;;;;;10.10;7.43;;;;;;;6.07;100.00;99802.13;5099694;28;20254;-68
2022/11/11 09:00:26;;;;;;;10.27;7.43;;;;;;;6.17;100.00;99803.59;5098294;28;20219;-69
2022/11/11 09:02:53;;;;;;;9.87;7.43;;;;;;;6.28;100.00;99806.84;5091032;28;20235;-68
2022/11/11 09:05:19;;;;;;;10.50;8.03;;;;;;;6.38;100.00;99804.81;5078240;28;20253;-69
2022/11/11 09:07:46;;;;;;;7.83;7.00;;;;;;;6.46;100.00;99805.47;5078301;28;20259;-70
2022/11/11 09:10:13;;;;;;;9.00;7.73;;;;;;;6.55;100.00;99811.38;5085836;28;20305;-68
2022/11/11 09:12:39;;;;;;;8.93;7.27;;;;;;;6.63;100.00;99809.41;5098143;28;20264;-70
2022/11/11 09:15:08;;;;;;;10.17;7.10;;;;;;;6.70;100.00;99810.94;5098628;28;20258;-69
2022/11/11 09:17:34;;;;;;;8.90;7.27;;;;;;;6.85;100.00;99805.25;5097508;28;20305;-70
2022/11/11 09:20:01;;;;;;;9.70;7.00;;;;;;;6.95;100.00;99795.38;5098214;28;20254;-70
2022/11/11 09:22:28;;;;;;;8.93;7.33;;;;;;;7.09;100.00;99796.69;5096286;28;20252;-71
2022/11/11 09:24:55;;;;;;;9.13;7.70;;;;;;;7.21;100.00;99791.06;5097543;28;20274;-71
2022/11/11 09:27:22;;;;;;;9.23;7.17;;;;;;;7.32;100.00;99792.50;5098552;28;20257;-70
2022/11/11 09:29:48;;;;;;;7.63;6.73;;;;;;;7.43;100.00;99794.78;5097923;28;20591;-71
2022/11/11 09:32:16;;;;;;;9.30;7.17;;;;;;;7.55;100.00;99791.78;5097644;28;20265;-72
2022/11/11 09:34:43;;;;;;;8.93;7.00;;;;;;;7.67;100.00;99788.78;5098219;28;20250;-72
2022/11/11 09:37:09;;;;;;;8.77;7.50;;;;;;;7.77;100.00;99784.94;5098296;28;20254;-72
2022/11/11 09:39:36;;;;;;;9.00;6.67;;;;;;;7.89;100.00;99780.13;5096505;28;20257;-71
2022/11/11 09:42:15;;;;;;;7.80;7.00;;;;;;;8.04;100.00;99779.66;5097830;28;20261;-71
2022/11/11 09:45:01;;;;;;;8.70;6.50;;;;;;;8.10;100.00;99779.44;5098183;28;20243;-70
2022/11/11 09:47:36;;;;;;;8.10;7.10;;;;;;;8.18;100.00;99781.81;5096471;28;20234;-71
2022/11/11 09:50:06;;;;;;;7.77;6.97;;;;;;;8.26;100.00;99779.81;5098690;28;20214;-72
2022/11/11 09:52:39;;;;;;;8.63;7.07;;;;;;;8.37;100.00;99777.66;5098686;28;20298;-73
2022/11/11 09:55:15;;;;;;;8.60;7.50;;;;;;;8.44;100.00;99782.69;5098733;28;20262;-71
2022/11/11 09:57:48;;;;;;;12.48;9.70;;;;;;;8.57;100.00;99788.41;5097462;28;20444;-72
2022/11/11 10:00:18;;;;;;;8.87;7.27;;;;;;;8.63;100.00;99767.94;5098544;28;20270;-72
2022/11/11 10:02:51;;;;;;;8.07;6.30;;;;;;;8.67;100.00;99766.03;5098422;28;20256;-72
2022/11/11 10:05:21;;;;;;;7.67;5.93;;;;;;;8.69;100.00;99770.34;5098523;28;20245;-72
2022/11/11 10:07:52;;;;;;;8.87;6.80;;;;;;;8.72;100.00;99774.66;5098394;28;20263;-72
2022/11/11 10:10:26;;;;;;;7.93;6.53;;;;;;;8.77;100.00;99778.00;5098517;28;20257;-72
2022/11/11 10:12:56;;;;;;;7.80;6.90;;;;;;;8.82;100.00;99771.63;5096693;28;20255;-72
2022/11/11 10:15:26;;;;;;;8.65;7.75;;;;;;;8.87;100.00;99782.03;5097783;28;20468;-72
2022/11/11 10:18:15;;;;;;;8.23;7.07;;;;;;;8.94;100.00;99775.59;5098222;28;20370;-72
2022/11/11 10:20:47;;;;;;;9.03;7.00;;;;;;;9.02;100.00;99773.53;5095250;28;20254;-71
2022/11/11 10:23:16;;;;;;;9.20;7.00;;;;;;;9.07;100.00;99766.31;5098005;28;20238;-72
2022/11/11 10:25:51;;;;;;;8.73;6.93;;;;;;;9.15;100.00;99769.53;5098252;28;20317;-72
2022/11/11 10:28:20;;;;;;;9.30;7.17;;;;;;;9.23;100.00;99770.13;5097921;28;20261;-72
2022/11/11 10:30:48;;;;;;;7.30;6.57;;;;;;;9.29;100.00;99775.13;5097915;28;20262;-71
2022/11/11 10:33:20;;;;;;;8.20;6.90;;;;;;;9.36;100.00;99779.28;5097933;28;20246;-71
2022/11/11 10:35:50;;;;;;;9.47;7.03;;;;;;;9.40;100.00;99788.78;5097864;28;20688;-72
2022/11/11 10:38:33;;;;;;;11.90;7.23;;;;;;;9.46;100.00;99785.91;5096109;28;20263;-72
2022/11/11 10:41:10;;;;;;;10.07;7.10;;;;;;;9.58;100.00;99781.03;5097886;28;20215;-71
2022/11/11 10:43:37;;;;;;;7.70;6.63;;;;;;;9.65;100.00;99789.53;5097591;28;20810;-72
2022/11/11 10:57:15;;;;;;;10.03;6.70;;;;;;;10.20;100.00;99760.00;5094291;27;20526;-71
2022/11/11 10:59:48;;;;;;;7.47;6.60;;;;;;;10.27;100.00;99762.34;5094242;28;20215;-71
2022/11/11 11:02:20;;;;;;;7.33;6.20;;;;;;;10.32;100.00;99764.78;5094201;28;20242;-71
2022/11/11 11:04:52;;;;;;;7.60;6.53;;;;;;;10.34;100.00;99755.03;5094211;28;20260;-70
2022/11/11 11:07:24;;;;;;;7.60;6.90;;;;;;;10.35;100.00;99754.94;5093643;28;20472;-70
2022/11/11 11:09:57;;;;;;;6.97;6.20;;;;;;;10.37;100.00;99749.59;5092484;28;20528;-71
2022/11/11 11:12:35;;;;;;;9.13;6.27;;;;;;;10.41;100.00;99737.97;5094192;28;20250;-71
2022/11/11 11:15:08;;;;;;;6.90;6.07;;;;;;;10.42;100.00;99732.63;5093873;28;20241;-71
2022/11/11 11:17:38;;;;;;;9.87;6.27;;;;;;;10.44;100.00;99733.41;5093949;28;20261;-71
2022/11/11 11:20:11;;;;;;;7.40;6.33;;;;;;;10.46;100.00;99733.34;5093993;28;20265;-71
2022/11/11 11:22:50;;;;;;;7.10;6.23;;;;;;;10.45;100.00;99736.91;5093874;28;20305;-71
2022/11/11 11:25:18;;;;;;;6.93;6.23;;;;;;;10.45;100.00;99735.13;5093781;28;20255;-71
2022/11/11 11:27:49;;;;;;;9.60;6.13;;;;;;;10.44;100.00;99740.47;5093783;28;20503;-71
2022/11/11 11:30:18;;;;;;;10.10;6.13;;;;;;;10.41;100.00;99741.44;5093680;28;20351;-71
2022/11/11 11:32:56;;;;;;;7.63;6.20;;;;;;;10.43;100.00;99744.91;5093548;28;20219;-71
2022/11/11 11:35:35;;;;;;;7.83;7.03;;;;;;;10.45;100.00;99745.69;5093026;28;20610;-70
2022/11/11 11:38:02;;;;;;;7.43;6.63;;;;;;;10.45;100.00;99745.69;5093357;28;20264;-70
2022/11/11 11:40:45;;;;;;;8.03;6.33;;;;;;;10.45;100.00;99739.56;5093593;28;20265;-70
2022/11/11 11:43:27;;;;;;;7.20;6.30;;;;;;;10.50;100.00;99743.72;5093432;28;20251;-70
2022/11/11 11:45:56;;;;;;;7.30;6.37;;;;;;;10.57;100.00;99741.63;5093494;28;20265;-73
2022/11/11 11:48:35;;;;;;;8.27;6.30;;;;;;;10.59;100.00;99732.72;5093382;28;20242;-71
2022/11/11 11:51:16;;;;;;;8.10;6.53;;;;;;;10.65;100.00;99736.91;5093438;28;20216;-71
2022/11/11 11:53:55;;;;;;;9.97;7.47;;;;;;;10.74;100.00;99734.69;5093345;28;20262;-70
2022/11/11 11:56:33;;;;;;;14.57;12.27;;;;;;;10.84;100.00;99727.22;5089421;28;20586;-70
2022/11/11 11:59:07;;;;;;;9.93;8.63;;;;;;;10.94;100.00;99728.53;5079646;28;20250;-70
2022/11/11 12:01:44;;;;;;;8.87;7.57;;;;;;;10.99;100.00;99727.38;5077741;28;20257;-70
2022/11/11 12:04:44;;;;;;;8.93;8.03;;;;;;;11.07;100.00;99730.53;5079649;28;20255;-71
2022/11/11 12:07:15;;;;;;;9.00;7.10;;;;;;;11.20;100.00;99730.81;5079516;28;20279;-71
2022/11/11 12:09:54;;;;;;;7.30;6.27;;;;;;;11.32;100.00;99743.50;5079783;28;20618;-71
2022/11/11 12:12:29;;;;;;;7.93;6.00;;;;;;;11.43;100.00;99731.44;5079441;28;20303;-72
2022/11/11 12:15:11;;;;;;;7.20;6.43;;;;;;;11.59;100.00;99735.13;5079674;28;20322;-73
2022/11/11 12:17:47;;;;;;;6.50;5.90;;;;;;;11.66;100.00;99735.69;5079412;28;20291;-72
2022/11/11 12:20:18;;;;;;;9.83;6.00;;;;;;;11.72;100.00;99727.44;5079263;28;20253;-73
2022/11/11 12:23:13;;;;;;;7.47;6.20;;;;;;;11.76;100.00;99727.22;5079166;28;20257;-71
2022/11/11 12:25:54;;;;;;;7.20;5.50;;;;;;;11.80;100.00;99722.63;5079226;28;20250;-72
2022/11/11 12:28:34;;;;;;;7.07;6.10;;;;;;;11.82;100.00;99726.06;5077391;28;20257;-71
2022/11/11 12:31:14;;;;;;;6.50;5.47;;;;;;;11.81;100.00;99719.06;5078955;28;20608;-71
2022/11/11 12:34:00;;;;;;;6.13;5.10;;;;;;;11.78;100.00;99719.19;5079024;28;20264;-71
2022/11/11 12:36:34;;;;;;;6.20;5.30;;;;;;;11.82;100.00;99724.28;5078836;28;20280;-71
2022/11/11 12:39:07;;;;;;;10.63;7.50;;;;;;;11.84;100.00;99710.94;5078948;28;20264;-71
2022/11/11 12:41:48;;;;;;;8.37;6.90;;;;;;;11.78;100.00;99717.41;5078686;28;20221;-72
2022/11/11 12:44:16;;;;;;;12.10;9.40;;;;;;;11.76;100.00;99716.63;5078848;28;20253;-71
2022/11/11 12:46:58;;;;;;;13.63;9.83;;;;;;;11.74;100.00;99720.28;5078847;28;20211;-71
2022/11/11 12:49:43;;;;;;;10.33;7.73;;;;;;;11.81;100.00;99716.41;5078702;28;20258;-71
2022/11/11 12:52:23;;;;;;;11.87;7.30;;;;;;;11.85;100.00;99712.66;5078612;28;20270;-71
2022/11/11 12:55:04;;;;;;;8.00;6.13;;;;;;;11.89;100.00;99711.56;5076466;28;20255;-71
2022/11/11 12:57:38;;;;;;;6.00;5.33;;;;;;;11.98;100.00;99711.13;5078470;28;20264;-71
2022/11/11 13:00:10;;;;;;;7.43;5.17;;;;;;;12.03;100.00;99709.09;5078382;28;20266;-71
2022/11/11 13:02:59;;;;;;;6.43;5.30;;;;;;;12.07;100.00;99708.88;5078472;28;20328;-71
2022/11/11 13:05:29;;;;;;;6.30;5.53;;;;;;;12.12;100.00;99695.38;5078367;28;20253;-71
2022/11/11 13:08:44;;;;;;;7.13;5.70;;;;;;;12.13;100.00;99699.75;5077632;28;20327;-71